Flight Track Log - Related Links

Times and Time Zones

All times are in EDT time to prevent confusion due to time zone crossing. See the AWI3551 flight status page for this flight to view local times or setup timezone preferences in your user account.

Time Position Orientation Groundspeed Altitude Reporting Facility
EDT Latitude Longitude Course Direction KTS MPH feet Rate Location/Type
Wed 05:30:27 AM 42.9500 -78.7167 173° South 150 173 1,500  Level Buffalo TRACON
Wed 05:31:33 AM 42.9833 -78.6500 56° Northeast 191 220 3,700 2,034 Climbing Buffalo TRACON
Wed 05:32:00 AM 42.7990 -78.5595 180° South  Level Estimated
Wed 05:33:00 AM 42.7283 -78.4742 172° South  Level Estimated
Wed 05:33:21 AM 42.8631 -78.6572 183° South 308 354 7,400  Level Cleveland Center
Wed 05:34:00 AM 42.6519 -78.5498 216° Southwest  Level FlightAware Approximate
Wed 05:34:21 AM 42.7922 -78.6508 176° South 285 328 10,000  Level Cleveland Center
Wed 05:35:00 AM 42.5850 -78.4654 173° South  Level Estimated
Wed 05:35:21 AM 42.7150 -78.6475 178° South 277 319 12,300  Level Cleveland Center
Wed 05:36:21 AM 42.6292 -78.6331 173° South 296 341 14,500 2,350 Climbing Cleveland Center
Wed 05:37:21 AM 42.5514 -78.5819 154° Southeast 304 350 17,000 2,200 Climbing Cleveland Center
Wed 05:38:21 AM 42.4689 -78.5256 153° Southeast 315 362 18,900 1,800 Climbing Cleveland Center
Wed 05:39:21 AM 42.3867 -78.4692 153° Southeast 320 368 20,600 1,700 Climbing Cleveland Center
Wed 05:40:21 AM 42.3042 -78.4100 152° Southeast 325 374 22,300 1,200 Climbing Cleveland Center
Wed 05:41:21 AM 42.2178 -78.3514 153° Southeast 335 386 23,000 350 Climbing Cleveland Center
Wed 05:42:21 AM 42.1269 -78.2903 153° Southeast 347 399 23,000  Level Cleveland Center
Wed 05:43:21 AM 42.0422 -78.2317 153° Southeast 347 399 23,000  Level Cleveland Center
Wed 05:45:06 AM 41.8872 -78.1264 153° Southeast 345 397 23,000  Level New York Center
Wed 05:46:07 AM 41.8053 -78.0728 154° Southeast 345 397 23,000  Level New York Center
Wed 05:47:07 AM 41.7233 -78.0164 153° Southeast 345 397 23,000  Level New York Center
Wed 05:48:05 AM 41.6414 -77.9578 152° Southeast 340 391 23,000  Level New York Center
Wed 05:49:06 AM 41.5572 -77.9014 153° Southeast 335 386 23,000  Level New York Center
Wed 05:50:06 AM 41.4772 -77.8486 154° Southeast 330 380 23,000  Level New York Center
Wed 05:51:06 AM 41.3950 -77.7931 153° Southeast 330 380 23,000  Level New York Center
Wed 05:52:06 AM 41.3167 -77.7406 153° Southeast 330 380 23,000  Level New York Center
Wed 05:53:07 AM 41.2367 -77.6856 153° Southeast 330 380 23,000  Level New York Center
Wed 05:54:07 AM 41.1583 -77.6333 153° Southeast 330 380 23,000  Level New York Center
Wed 05:55:04 AM 41.0803 -77.5814 153° Southeast 330 380 23,000 -254 Level New York Center
Wed 05:56:05 AM 41.0019 -77.5294 153° Southeast 324 373 22,500 -984 Descending New York Center
Wed 05:57:06 AM 40.9256 -77.4781 153° Southeast 318 366 21,000 -1,500 Descending New York Center
Wed 05:58:05 AM 40.8472 -77.4264 153° Southeast 313 360 19,500 -1,438 Descending New York Center
Wed 05:59:07 AM 40.7647 -77.3717 153° Southeast 319 367 18,100 -750 Descending New York Center
Wed 06:00:05 AM 40.6842 -77.3231 155° Southeast 319 367 18,000 -50 Descending New York Center
Wed 06:01:06 AM 40.6056 -77.2717 154° Southeast 319 367 18,000  Level New York Center
Wed 06:02:06 AM 40.5353 -77.2242 153° Southeast 314 361 18,000  Level New York Center
Wed 06:03:06 AM 40.4528 -77.1700 153° Southeast 309 356 18,000  Level New York Center
Wed 06:04:07 AM 40.3903 -77.1289 153° Southeast 293 337 18,000 -298 Level New York Center
Wed 06:05:07 AM 40.3119 -77.0781 154° Southeast 288 331 17,400 -1,068 Descending New York Center
Wed 06:06:05 AM 40.2761 -77.0039 122° Southeast 274 315 15,900 -1,950 Descending New York Center
Wed 06:07:07 AM 40.2547 -76.8933 104° East 268 308 13,500 -2,300 Descending New York Center
Wed 06:08:05 AM 40.2539 -76.7925 91° East 273 314 11,300 -1,765 Descending New York Center
Wed 06:09:06 AM 40.2689 -76.6986 78° East 273 314 10,000 -700 Descending New York Center
Wed 06:10:05 AM 40.2697 -76.6006 89° East 268 308 9,900 -50 Descending New York Center
Wed 06:11:05 AM 40.2425 -76.5169 113° Southeast 259 298 9,900  Level New York Center
Wed 06:12:05 AM 40.2200 -76.4225 107° East 252 290 9,900  Level New York Center
Wed 06:13:05 AM 40.2011 -76.3339 106° East 257 296 9,900 50 Level New York Center
Wed 06:14:06 AM 40.1842 -76.2539 105° East 257 296 10,000 -151 Climbing New York Center
Wed 06:15:04 AM 40.1617 -76.1517 106° East 257 296 9,600 -756 Descending New York Center
Wed 06:16:05 AM 40.1447 -76.0661 104° East 250 288 8,500 -787 Descending New York Center
Wed 06:17:06 AM 40.1258 -75.9750 105° East 251 289 8,000 -197 Descending New York Center
Wed 06:18:07 AM 40.1067 -75.8867 106° East 251 289 8,100  Climbing New York Center
Wed 06:19:04 AM 40.0878 -75.7958 105° East 251 289 8,000  Descending New York Center
Wed 06:20:06 AM 40.1142 -75.7161 67° East 225 259 8,100  Climbing New York Center
Wed 06:21:04 AM 40.1742 -75.6769 27° Northeast 207 238 8,000 -50 Descending New York Center
Wed 06:22:06 AM 40.2339 -75.6431 23° Northeast 237 273 8,000 -439 Level New York Center
Wed 06:23:07 AM 40.2739 -75.5833 49° Northeast 223 257 7,100 -496 Descending New York Center
Wed 06:24:07 AM 40.2917 -75.5003 74° East 205 236 7,000 -51 Descending New York Center
Wed 06:25:05 AM 40.3031 -75.4247 79° East 205 236 7,000  Level New York Center
Wed 06:26:06 AM 40.2475 -75.4075 167° South 174 200 7,000 -397 Level New York Center
Wed 06:27:06 AM 40.1847 -75.4142 185° South 209 241 6,200 -446 Descending New York Center
Wed 06:28:07 AM 40.1242 -75.4183 183° South 219 252 6,100 -51 Descending New York Center
Wed 06:29:04 AM 40.0656 -75.4197 181° South 219 252 6,100 -29 Level New York Center
Wed 06:31:31 AM 39.9333 -75.4167 179° South 242 278 6,000 -87 Descending Philadelphia TRACON
Wed 06:32:31 AM 39.9167 -75.5000 255° West 245 282 5,800 -429 Descending Philadelphia TRACON
Wed 06:33:37 AM 39.9000 -75.5833 255° West 189 217 5,100 -333 Descending Philadelphia TRACON
Wed 06:34:37 AM 39.8833 -75.6500 252° West 196 226 5,100  Level Philadelphia TRACON
Wed 06:35:37 AM 39.8667 -75.7167 252° West 191 220 5,100 -50 Level Philadelphia TRACON
Wed 06:36:37 AM 39.8500 -75.7833 252° West 196 226 5,000 -263 Descending Philadelphia TRACON
Wed 06:37:31 AM 39.8167 -75.7833 180° South 167 192 4,600 -526 Descending Philadelphia TRACON
Wed 06:38:31 AM 39.7833 -75.7500 142° Southeast 160 184 4,000 -300 Descending Philadelphia TRACON
Wed 06:39:31 AM 39.7833 -75.6833 90° East 171 197 4,000  Level Philadelphia TRACON
Wed 06:40:31 AM 39.7833 -75.6333 90° East 168 193 4,000  Level Philadelphia TRACON
Wed 06:41:31 AM 39.8000 -75.5667 72° East 171 197 4,000 -100 Level Philadelphia TRACON
Wed 06:42:31 AM 39.8167 -75.5167 67° East 168 193 3,800 -200 Descending Philadelphia TRACON

Login

Don't have an account? Register now (free) for customized features, flight alerts, and more!